Robbins, California
Current Conditions -  °F | °C
As of 11:53 PM on Sunday 21 Dec 2014 (Local Time) from KSMF Reporting Station
Light Fog Light Fog  
Wind Chill: 56°   Ceiling: Unl
Heat Index: 56°   Visibility: 3mi
Dew Point: 54°   Wind: 6mph
Humidity: 93%   Direction: 320°NW
Pressure: 30.27"   Gusts: NA
Location:  38.87°N, 121.71°W
Report Text: KSMF 220753Z 32005KT 3SM BR BCFG FEW003 SCT019 13/12 A3027 RMK AO2 SLP248 T01330122 401780128 $
Loading
Personal Weather Stations






























Interactive Weather Map New forecast layout! Learn more

10-Day Weather Forecast

Advertisements
Track Severe Weather on mobile